createdAt,value
2022-12-11T00:00:09.639Z,-0.3
2022-12-11T00:03:16.491Z,-0.3
2022-12-11T00:06:09.526Z,-0.3
2022-12-11T00:09:09.516Z,-0.3
2022-12-11T00:12:09.576Z,-0.3
2022-12-11T00:15:10.203Z,-0.3
2022-12-11T00:18:09.543Z,-0.3
2022-12-11T00:21:09.575Z,-0.3
2022-12-11T00:24:09.561Z,-0.3
2022-12-11T00:27:09.509Z,-0.3
2022-12-11T00:30:09.578Z,-0.3
2022-12-11T00:33:09.704Z,-0.3
2022-12-11T00:36:09.514Z,-0.3
2022-12-11T00:39:09.508Z,-0.3
2022-12-11T00:42:09.586Z,-0.3
2022-12-11T00:45:10.059Z,-0.3
2022-12-11T00:48:09.614Z,-0.3
2022-12-11T00:51:09.671Z,-0.3
2022-12-11T00:54:09.489Z,-0.3
2022-12-11T00:57:09.530Z,-0.3
2022-12-11T01:00:09.571Z,-0.3
2022-12-11T01:03:10.567Z,-0.3
2022-12-11T01:06:09.539Z,-0.3
2022-12-11T01:09:09.712Z,-0.3
2022-12-11T01:12:09.513Z,-0.3
2022-12-11T01:15:10.073Z,-0.3
2022-12-11T01:18:09.581Z,-0.3
2022-12-11T01:21:09.653Z,-0.3
2022-12-11T01:24:09.577Z,-0.3
2022-12-11T01:27:09.528Z,-0.3
2022-12-11T01:30:09.559Z,-0.3
2022-12-11T01:33:09.449Z,-0.3
2022-12-11T01:36:10.622Z,-0.3
2022-12-11T01:39:09.607Z,-0.3
2022-12-11T01:42:09.601Z,-0.3
2022-12-11T01:45:10.469Z,-0.3
2022-12-11T01:48:09.992Z,-0.3
2022-12-11T01:51:10.595Z,-0.3
2022-12-11T01:54:10.092Z,-0.3
2022-12-11T01:57:09.518Z,-0.3
2022-12-11T02:00:09.607Z,-0.3
2022-12-11T02:03:09.693Z,-0.3
2022-12-11T02:06:09.606Z,-0.3
2022-12-11T02:09:09.599Z,-0.3
2022-12-11T02:12:09.880Z,-0.3
2022-12-11T02:15:10.208Z,-0.3
2022-12-11T02:18:09.648Z,-0.3
2022-12-11T02:21:09.668Z,-0.4
2022-12-11T02:24:09.831Z,-0.4
2022-12-11T02:27:09.559Z,-0.4
2022-12-11T02:30:09.706Z,-0.4
2022-12-11T02:33:09.746Z,-0.4
2022-12-11T02:36:09.563Z,-0.4
2022-12-11T02:39:09.531Z,-0.4
2022-12-11T02:42:09.613Z,-0.4
2022-12-11T02:45:10.057Z,-0.4
2022-12-11T02:48:10.411Z,-0.4
2022-12-11T02:51:09.598Z,-0.4
2022-12-11T02:54:09.897Z,-0.4
2022-12-11T02:57:10.712Z,-0.4
2022-12-11T03:00:09.596Z,-0.4
2022-12-11T03:03:09.555Z,-0.4
2022-12-11T03:06:09.597Z,-0.4
2022-12-11T03:09:09.548Z,-0.5
2022-12-11T03:12:09.611Z,-0.5
2022-12-11T03:15:09.673Z,-0.5
2022-12-11T03:18:09.655Z,-0.5
2022-12-11T03:21:09.635Z,-0.5
2022-12-11T03:24:09.893Z,-0.5
2022-12-11T03:27:17.820Z,-0.5
2022-12-11T03:30:10.097Z,-0.4
2022-12-11T03:33:10.006Z,-0.5
2022-12-11T03:36:10.044Z,-0.5
2022-12-11T03:39:09.619Z,-0.5
2022-12-11T03:42:09.935Z,-0.5
2022-12-11T03:45:10.487Z,-0.5
2022-12-11T03:48:09.840Z,-0.5
2022-12-11T03:51:09.618Z,-0.6
2022-12-11T03:54:10.057Z,-0.6
2022-12-11T03:57:09.641Z,-0.5
2022-12-11T04:00:09.738Z,-0.5
2022-12-11T04:03:17.715Z,-0.5
2022-12-11T04:06:09.658Z,-0.5
2022-12-11T04:09:09.580Z,-0.6
2022-12-11T04:12:09.645Z,-0.6
2022-12-11T04:15:09.699Z,-0.6
2022-12-11T04:18:09.625Z,-0.5
2022-12-11T04:21:09.719Z,-0.5
2022-12-11T04:24:09.732Z,-0.5
2022-12-11T04:27:09.878Z,-0.5
2022-12-11T04:30:09.976Z,-0.5
2022-12-11T04:33:09.818Z,-0.4
2022-12-11T04:36:09.686Z,-0.4
2022-12-11T04:39:09.678Z,-0.5
2022-12-11T04:42:10.006Z,-0.4
2022-12-11T04:45:10.024Z,-0.4
2022-12-11T04:48:09.917Z,-0.4
2022-12-11T04:51:12.695Z,-0.4
2022-12-11T04:54:16.096Z,-0.4
2022-12-11T04:57:13.215Z,-0.4
2022-12-11T05:00:22.328Z,-0.4
2022-12-11T05:03:12.062Z,-0.4
2022-12-11T05:18:09.944Z,-0.4
2022-12-11T05:21:09.514Z,-0.4
2022-12-11T05:24:09.663Z,-0.4
2022-12-11T05:27:09.564Z,-0.4
2022-12-11T05:33:09.549Z,-0.4
2022-12-11T05:36:09.601Z,-0.4
2022-12-11T05:39:09.508Z,-0.4
2022-12-11T05:42:09.562Z,-0.4
2022-12-11T05:45:10.015Z,-0.4
2022-12-11T05:48:09.693Z,-0.4
2022-12-11T05:51:09.517Z,-0.4
2022-12-11T05:54:09.559Z,-0.4
2022-12-11T05:57:09.528Z,-0.4
2022-12-11T06:00:09.626Z,-0.4
2022-12-11T06:03:10.504Z,-0.4
2022-12-11T06:06:09.555Z,-0.4
2022-12-11T06:09:09.507Z,-0.4
2022-12-11T06:12:09.468Z,-0.4
2022-12-11T06:15:10.025Z,-0.4
2022-12-11T06:18:09.552Z,-0.4
2022-12-11T06:21:09.529Z,-0.4
2022-12-11T06:24:09.584Z,-0.4
2022-12-11T06:27:09.487Z,-0.4
2022-12-11T06:30:09.800Z,-0.4
2022-12-11T06:33:09.566Z,-0.4
2022-12-11T06:36:09.592Z,-0.5
2022-12-11T06:39:09.523Z,-0.5
2022-12-11T06:42:09.546Z,-0.5
2022-12-11T06:45:09.838Z,-0.5
2022-12-11T06:48:09.630Z,-0.6
2022-12-11T06:51:09.484Z,-0.6
2022-12-11T06:54:09.542Z,-0.6
2022-12-11T06:57:09.629Z,-0.6
2022-12-11T07:00:09.834Z,-0.6
2022-12-11T07:03:09.543Z,-0.6
2022-12-11T07:06:09.498Z,-0.6
2022-12-11T07:09:09.521Z,-0.6
2022-12-11T07:12:09.790Z,-0.6
2022-12-11T07:15:10.028Z,-0.6
2022-12-11T07:18:09.594Z,-0.6
2022-12-11T07:21:09.580Z,-0.5
2022-12-11T07:24:09.612Z,-0.6
2022-12-11T07:27:09.646Z,-0.6
2022-12-11T07:30:09.709Z,-0.6
2022-12-11T07:33:09.834Z,-0.5
2022-12-11T07:36:09.601Z,-0.5
2022-12-11T07:39:09.607Z,-0.4
2022-12-11T07:42:09.574Z,-0.4
2022-12-11T07:45:09.882Z,-0.4
2022-12-11T07:48:09.589Z,-0.4
2022-12-11T07:51:09.652Z,-0.4
2022-12-11T07:54:09.652Z,-0.5
2022-12-11T07:57:16.656Z,-0.4
2022-12-11T08:00:10.047Z,-0.4
2022-12-11T08:03:09.587Z,-0.5
2022-12-11T08:06:09.761Z,-0.5
2022-12-11T08:09:09.572Z,-0.4
2022-12-11T08:12:09.649Z,-0.4
2022-12-11T08:15:09.875Z,-0.4
2022-12-11T08:18:09.578Z,-0.4
2022-12-11T08:21:09.549Z,-0.4
2022-12-11T08:24:09.603Z,-0.4
2022-12-11T08:27:09.620Z,-0.4
2022-12-11T08:30:09.693Z,-0.4
2022-12-11T08:33:09.539Z,-0.3
2022-12-11T08:36:09.702Z,-0.3
2022-12-11T08:39:09.560Z,-0.3
2022-12-11T08:42:09.657Z,-0.3
2022-12-11T08:45:10.002Z,-0.3
2022-12-11T08:48:09.765Z,-0.2
2022-12-11T08:51:09.535Z,-0.1
2022-12-11T08:54:09.618Z,-0.1
2022-12-11T08:57:09.557Z,-0.1
2022-12-11T09:00:09.846Z,-0.1
2022-12-11T09:03:15.339Z,0
2022-12-11T09:06:09.687Z,0.1
2022-12-11T09:09:09.666Z,0.1
2022-12-11T09:12:09.604Z,0.1
2022-12-11T09:15:09.635Z,0.1
2022-12-11T09:18:09.574Z,0.2
2022-12-11T09:21:09.596Z,0.2
2022-12-11T09:24:09.772Z,0.2
2022-12-11T09:27:09.563Z,0.2
2022-12-11T09:30:09.671Z,0.2
2022-12-11T09:33:09.649Z,0.1
2022-12-11T09:36:09.582Z,0.1
2022-12-11T09:39:09.677Z,0.1
2022-12-11T09:42:09.633Z,0.2
2022-12-11T09:45:09.984Z,0.2
2022-12-11T09:48:09.645Z,0.2
2022-12-11T09:51:09.566Z,0.4
2022-12-11T09:54:09.577Z,0.3
2022-12-11T09:57:09.566Z,0.2
2022-12-11T10:00:14.697Z,0.1
2022-12-11T10:03:09.785Z,0.3
2022-12-11T10:06:14.130Z,0.7
2022-12-11T10:09:09.565Z,1.2
2022-12-11T10:12:10.309Z,1.8
2022-12-11T10:15:10.071Z,0.2
2022-12-11T10:18:14.293Z,0.8
2022-12-11T10:21:09.517Z,1.3
2022-12-11T10:24:09.640Z,1.6
2022-12-11T10:27:09.560Z,1.8
2022-12-11T10:30:09.636Z,2.2
2022-12-11T10:33:09.648Z,2.4
2022-12-11T10:36:09.606Z,2.4
2022-12-11T10:39:09.607Z,2.1
2022-12-11T10:42:09.549Z,1.9
2022-12-11T10:45:09.996Z,1.5
2022-12-11T10:48:09.604Z,1.5
2022-12-11T10:51:09.662Z,1.8
2022-12-11T10:54:16.355Z,2.2
2022-12-11T10:57:10.256Z,2.3
2022-12-11T11:00:09.659Z,2.2
2022-12-11T11:03:09.930Z,1.6
2022-12-11T11:06:09.811Z,1.4
2022-12-11T11:09:09.585Z,1.4
2022-12-11T11:12:17.045Z,1.6
2022-12-11T11:15:09.958Z,1.8
2022-12-11T11:18:09.563Z,1.4
2022-12-11T11:21:09.607Z,1.4
2022-12-11T11:24:09.625Z,1.8
2022-12-11T11:27:23.215Z,1.3
2022-12-11T11:30:09.607Z,1.2
2022-12-11T11:33:09.680Z,1.2
2022-12-11T11:36:09.603Z,0.8
2022-12-11T11:39:09.528Z,0.6
2022-12-11T11:42:09.633Z,0.3
2022-12-11T11:45:09.716Z,0
2022-12-11T11:48:17.693Z,1.9
2022-12-11T11:51:09.587Z,1.9
2022-12-11T11:54:09.616Z,1.9
2022-12-11T11:57:09.523Z,1.9
2022-12-11T12:00:09.723Z,1.8
2022-12-11T12:03:09.949Z,1.5
2022-12-11T12:06:15.625Z,1.4
2022-12-11T12:09:09.573Z,1.3
2022-12-11T12:12:09.631Z,1.3
2022-12-11T12:15:09.782Z,1.3
2022-12-11T12:18:09.654Z,1.4
2022-12-11T12:21:09.573Z,1.6
2022-12-11T12:24:09.571Z,1.7
2022-12-11T12:27:53.788Z,1.7
2022-12-11T12:30:09.714Z,1.8
2022-12-11T12:33:09.652Z,1.7
2022-12-11T12:36:16.091Z,1.7
2022-12-11T12:39:09.562Z,1.7
2022-12-11T12:42:16.944Z,1.6
2022-12-11T12:45:09.938Z,1.6
2022-12-11T12:48:09.630Z,1.6
2022-12-11T12:51:09.644Z,1.6
2022-12-11T12:54:16.715Z,1.6
2022-12-11T12:57:09.624Z,1.6
2022-12-11T13:00:17.791Z,1.6
2022-12-11T13:03:09.572Z,1.6
2022-12-11T13:06:09.646Z,1.6
2022-12-11T13:09:09.638Z,1.6
2022-12-11T13:12:09.585Z,1.6
2022-12-11T13:15:09.818Z,1.6
2022-12-11T13:18:09.776Z,1.6
2022-12-11T13:21:09.622Z,1.6
2022-12-11T13:24:09.613Z,1.6
2022-12-11T13:27:09.550Z,1.6
2022-12-11T13:30:09.729Z,1.6
2022-12-11T13:33:09.518Z,1.6
2022-12-11T13:36:22.895Z,1.6
2022-12-11T13:39:09.723Z,1.5
2022-12-11T13:42:13.144Z,1.5
2022-12-11T13:45:09.876Z,1.4
2022-12-11T13:48:12.808Z,1.4
2022-12-11T13:51:09.659Z,1.3
2022-12-11T13:54:12.672Z,1.2
2022-12-11T13:57:09.667Z,1
2022-12-11T14:00:12.981Z,0.8
2022-12-11T14:03:09.702Z,0.7
2022-12-11T14:06:13.311Z,0.6
2022-12-11T14:09:09.526Z,0.6
2022-12-11T14:12:09.600Z,0.6
2022-12-11T14:15:09.839Z,0.6
2022-12-11T14:18:09.669Z,0.5
2022-12-11T14:21:09.631Z,0.5
2022-12-11T14:24:09.592Z,0.4
2022-12-11T14:27:09.529Z,0.4
2022-12-11T14:30:09.864Z,0.3
2022-12-11T14:33:09.560Z,0.2
2022-12-11T14:36:09.639Z,0.1
2022-12-11T14:39:09.570Z,0.1
2022-12-11T14:42:09.585Z,-0.1
2022-12-11T14:45:09.650Z,-0.3
2022-12-11T14:48:09.546Z,-0.5
2022-12-11T14:51:09.621Z,-0.6
2022-12-11T14:54:09.588Z,-0.8
2022-12-11T14:57:09.573Z,-0.9
2022-12-11T15:00:10.193Z,-1.1
2022-12-11T15:03:10.197Z,-1.1
2022-12-11T15:06:09.778Z,-1.1
2022-12-11T15:09:09.506Z,-1.3
2022-12-11T15:12:09.553Z,-1.3
2022-12-11T15:15:09.608Z,-1.4
2022-12-11T15:18:09.520Z,-1.6
2022-12-11T15:21:09.546Z,-1.7
2022-12-11T15:24:09.524Z,-1.8
2022-12-11T15:27:09.598Z,-1.9
2022-12-11T15:30:09.977Z,-2.1
2022-12-11T15:33:09.512Z,-2.1
2022-12-11T15:36:09.625Z,-2.2
2022-12-11T15:39:09.542Z,-2.1
2022-12-11T15:42:09.573Z,-2.1
2022-12-11T15:45:10.108Z,-2
2022-12-11T15:48:09.583Z,-2.1
2022-12-11T15:51:09.559Z,-2.1
2022-12-11T15:54:09.619Z,-2.1
2022-12-11T15:57:09.540Z,-2.1
2022-12-11T16:00:10.177Z,-2.2
2022-12-11T16:03:09.569Z,-2.2
2022-12-11T16:06:09.599Z,-2.1
2022-12-11T16:09:09.612Z,-2
2022-12-11T16:12:09.604Z,-2
2022-12-11T16:15:09.784Z,-1.9
2022-12-11T16:18:09.603Z,-1.9
2022-12-11T16:21:09.525Z,-1.8
2022-12-11T16:24:09.749Z,-1.8
2022-12-11T16:27:09.742Z,-1.8
2022-12-11T16:30:09.620Z,-1.8
2022-12-11T16:33:17.839Z,-1.8
2022-12-11T16:36:09.555Z,-1.8
2022-12-11T16:39:09.598Z,-1.6
2022-12-11T16:42:09.923Z,-1.6
2022-12-11T16:45:09.934Z,-1.5
2022-12-11T16:48:09.573Z,-1.4
2022-12-11T16:51:09.617Z,-1.4
2022-12-11T16:54:09.539Z,-1.4
2022-12-11T16:57:09.658Z,-1.3
2022-12-11T17:00:09.571Z,-1.3
2022-12-11T17:03:09.926Z,-1.3
2022-12-11T17:06:09.575Z,-1.3
2022-12-11T17:09:09.506Z,-1.3
2022-12-11T17:12:09.524Z,-1.3
2022-12-11T17:15:09.887Z,-1.3
2022-12-11T17:18:09.970Z,-1.3
2022-12-11T17:21:09.562Z,-1.3
2022-12-11T17:24:09.587Z,-1.3
2022-12-11T17:27:09.580Z,-1.3
2022-12-11T17:30:09.676Z,-1.3
2022-12-11T17:33:09.526Z,-1.2
2022-12-11T17:36:09.582Z,-1.3
2022-12-11T17:39:09.531Z,-1.3
2022-12-11T17:42:09.568Z,-1.2
2022-12-11T17:45:09.767Z,-1.3
2022-12-11T17:48:09.539Z,-1.2
2022-12-11T17:51:09.511Z,-1.2
2022-12-11T17:54:09.603Z,-1.2
2022-12-11T17:57:09.545Z,-1.2
2022-12-11T18:00:09.582Z,-1.2
2022-12-11T18:03:09.581Z,-1.3
2022-12-11T18:06:09.569Z,-1.3
2022-12-11T18:09:09.480Z,-1.3
2022-12-11T18:12:09.557Z,-1.4
2022-12-11T18:15:09.659Z,-1.6
2022-12-11T18:18:09.571Z,-1.7
2022-12-11T18:21:09.561Z,-1.9
2022-12-11T18:24:09.560Z,-2.1
2022-12-11T18:27:09.534Z,-2.2
2022-12-11T18:30:09.642Z,-2.3
2022-12-11T18:33:09.512Z,-2.4
2022-12-11T18:36:09.538Z,-2.5
2022-12-11T18:39:09.556Z,-2.6
2022-12-11T18:42:42.148Z,-2.7
2022-12-11T18:45:09.728Z,-2.8
2022-12-11T18:48:09.533Z,-2.8
2022-12-11T18:51:09.599Z,-2.9
2022-12-11T18:54:09.542Z,-2.9
2022-12-11T18:57:09.514Z,-2.8
2022-12-11T19:00:09.693Z,-2.6
2022-12-11T19:03:09.522Z,-2.4
2022-12-11T19:06:09.519Z,-2.4
2022-12-11T19:09:09.547Z,-2.4
2022-12-11T19:12:09.577Z,-2.4
2022-12-11T19:15:09.994Z,-2.4
2022-12-11T19:18:09.485Z,-2.3
2022-12-11T19:21:19.254Z,-2.1
2022-12-11T19:24:09.590Z,-2.1
2022-12-11T19:27:17.663Z,-2
2022-12-11T19:30:09.633Z,-2
2022-12-11T19:33:09.491Z,-1.8
2022-12-11T19:36:09.631Z,-1.9
2022-12-11T19:39:19.663Z,-1.8
2022-12-11T19:42:09.676Z,-1.7
2022-12-11T19:45:09.991Z,-1.8
2022-12-11T19:48:09.575Z,-1.8
2022-12-11T19:51:09.530Z,-1.9
2022-12-11T19:54:09.641Z,-1.8
2022-12-11T19:57:09.489Z,-2
2022-12-11T20:00:09.654Z,-2.1
2022-12-11T20:03:09.701Z,-2.3
2022-12-11T20:06:09.583Z,-2.4
2022-12-11T20:09:09.941Z,-2.4
2022-12-11T20:12:09.595Z,-2.4
2022-12-11T20:15:09.942Z,-2.3
2022-12-11T20:18:12.766Z,-2.3
2022-12-11T20:21:09.493Z,-2.4
2022-12-11T20:24:09.714Z,-2.4
2022-12-11T20:27:09.560Z,-2.4
2022-12-11T20:30:09.580Z,-2.6
2022-12-11T20:33:09.547Z,-2.7
2022-12-11T20:36:09.527Z,-2.8
2022-12-11T20:39:09.521Z,-2.9
2022-12-11T20:42:09.596Z,-3
2022-12-11T20:45:09.687Z,-3.1
2022-12-11T20:48:09.515Z,-3.2
2022-12-11T20:51:09.529Z,-3.3
2022-12-11T20:54:09.475Z,-3.4
2022-12-11T20:57:09.546Z,-3.4
2022-12-11T21:00:09.658Z,-3.5
2022-12-11T21:03:09.467Z,-3.5
2022-12-11T21:06:09.566Z,-3.6
2022-12-11T21:09:09.507Z,-3.7
2022-12-11T21:12:09.570Z,-3.8
2022-12-11T21:15:09.826Z,-3.9
2022-12-11T21:18:09.559Z,-3.9
2022-12-11T21:21:09.472Z,-3.9
2022-12-11T21:24:09.533Z,-4
2022-12-11T21:27:09.525Z,-4
2022-12-11T21:30:09.575Z,-4
2022-12-11T21:33:09.518Z,-4
2022-12-11T21:36:09.565Z,-3.9
2022-12-11T21:39:09.537Z,-3.9
2022-12-11T21:42:09.573Z,-4.1
2022-12-11T21:48:09.554Z,-4.2
2022-12-11T21:51:09.498Z,-4.2
2022-12-11T21:54:09.538Z,-4.2
2022-12-11T21:57:09.513Z,-4.3
2022-12-11T22:00:09.556Z,-4.3
2022-12-11T22:03:09.522Z,-4.3
2022-12-11T22:06:09.537Z,-4.4
2022-12-11T22:09:09.472Z,-4.4
2022-12-11T22:12:09.944Z,-4.4
2022-12-11T22:15:09.848Z,-4.5
2022-12-11T22:18:09.517Z,-4.6
2022-12-11T22:21:09.612Z,-4.6
2022-12-11T22:24:09.578Z,-4.6
2022-12-11T22:27:09.831Z,-4.7
2022-12-11T22:30:09.539Z,-4.5
2022-12-11T22:33:09.521Z,-4.3
2022-12-11T22:36:09.483Z,-4.3
2022-12-11T22:39:09.636Z,-4.3
2022-12-11T22:42:09.622Z,-4.4
2022-12-11T22:45:09.926Z,-4.5
2022-12-11T22:48:09.532Z,-4.5
2022-12-11T22:51:09.590Z,-4.6
2022-12-11T22:54:09.551Z,-4.7
2022-12-11T22:57:09.651Z,-4.7
2022-12-11T23:00:09.802Z,-4.7
2022-12-11T23:03:10.372Z,-4.6
2022-12-11T23:06:14.259Z,-4.4
2022-12-11T23:09:09.790Z,-4.4
2022-12-11T23:12:09.578Z,-4.3
2022-12-11T23:15:09.693Z,-4.3
2022-12-11T23:18:09.547Z,-4.3
2022-12-11T23:21:09.580Z,-4.4
2022-12-11T23:24:09.552Z,-4.3
2022-12-11T23:27:09.575Z,-4.3
2022-12-11T23:30:09.546Z,-4.2
2022-12-11T23:33:09.544Z,-4.1
2022-12-11T23:36:09.561Z,-3.9
2022-12-11T23:39:09.517Z,-3.9
2022-12-11T23:42:09.584Z,-3.9
2022-12-11T23:45:09.933Z,-3.9
2022-12-11T23:48:09.555Z,-3.9
2022-12-11T23:51:09.634Z,-3.9
2022-12-11T23:54:09.601Z,-3.9
2022-12-11T23:57:09.522Z,-4
